Aviation Digital Data Service (ADDS)

Output produced by METARs form (0410 UTC 24 May 2017)
found at http://aviationweather.gov/adds/metars/
 
KVQQ 240244Z 2403/2424 26010G20KT P6SM VCTS SCT030CB BKN070 BKN120 
     TEMPO 2404/2405 VRB25G40KT 2SM +TSRA BR BKN020CB OVC050 
     FM240500 20010G15KT 4SM SHRA VCTS SCT010 BKN025CB OVC050 
     FM241300 22015G25KT 4SM SHRA VCTS OVC020CB